sensor_id;sensor_type;location;lat;lon;timestamp;P1;durP1;ratioP1;P2;durP2;ratioP2
59532;SDS011;45351;53.596;10.000;2022-09-03T00:01:17;9.03;;;1.03;;
59532;SDS011;45351;53.596;10.000;2022-09-03T00:03:50;5.23;;;1.10;;
59532;SDS011;45351;53.596;10.000;2022-09-03T00:06:22;8.07;;;1.30;;
59532;SDS011;45351;53.596;10.000;2022-09-03T00:08:54;3.47;;;1.00;;
59532;SDS011;45351;53.596;10.000;2022-09-03T00:11:28;4.03;;;1.13;;
59532;SDS011;45351;53.596;10.000;2022-09-03T00:14:02;16.00;;;1.40;;
59532;SDS011;45351;53.596;10.000;2022-09-03T00:16:33;12.70;;;1.40;;
59532;SDS011;45351;53.596;10.000;2022-09-03T00:19:07;6.43;;;0.93;;
59532;SDS011;45351;53.596;10.000;2022-09-03T00:21:38;5.63;;;1.10;;
59532;SDS011;45351;53.596;10.000;2022-09-03T00:24:10;7.53;;;1.20;;
59532;SDS011;45351;53.596;10.000;2022-09-03T00:26:39;3.57;;;0.90;;
59532;SDS011;45351;53.596;10.000;2022-09-03T00:29:12;3.57;;;0.80;;
59532;SDS011;45351;53.596;10.000;2022-09-03T00:31:43;3.43;;;1.07;;
59532;SDS011;45351;53.596;10.000;2022-09-03T00:34:14;4.63;;;1.30;;
59532;SDS011;45351;53.596;10.000;2022-09-03T00:36:47;4.60;;;1.03;;
59532;SDS011;45351;53.596;10.000;2022-09-03T00:39:14;4.87;;;1.30;;
59532;SDS011;45351;53.596;10.000;2022-09-03T00:41:47;4.40;;;0.93;;
59532;SDS011;45351;53.596;10.000;2022-09-03T00:44:36;5.73;;;1.17;;
59532;SDS011;45351;53.596;10.000;2022-09-03T00:47:18;5.33;;;0.97;;
59532;SDS011;45351;53.596;10.000;2022-09-03T00:49:55;1.93;;;1.07;;
59532;SDS011;45351;53.596;10.000;2022-09-03T00:52:37;2.70;;;1.00;;
59532;SDS011;45351;53.596;10.000;2022-09-03T00:55:13;4.00;;;0.90;;
59532;SDS011;45351;53.596;10.000;2022-09-03T00:57:50;8.33;;;0.87;;
59532;SDS011;45351;53.596;10.000;2022-09-03T01:00:29;2.70;;;1.10;;
59532;SDS011;45351;53.596;10.000;2022-09-03T01:03:00;4.70;;;0.90;;
59532;SDS011;45351;53.596;10.000;2022-09-03T01:05:47;4.37;;;1.00;;
59532;SDS011;45351;53.596;10.000;2022-09-03T01:08:38;5.20;;;0.80;;
59532;SDS011;45351;53.596;10.000;2022-09-03T01:11:19;9.03;;;1.10;;
59532;SDS011;45351;53.596;10.000;2022-09-03T01:13:55;3.23;;;0.80;;
59532;SDS011;45351;53.596;10.000;2022-09-03T01:16:30;2.40;;;0.97;;
59532;SDS011;45351;53.596;10.000;2022-09-03T01:19:04;4.13;;;0.80;;
59532;SDS011;45351;53.596;10.000;2022-09-03T01:21:55;2.73;;;0.80;;
59532;SDS011;45351;53.596;10.000;2022-09-03T01:24:38;3.40;;;1.03;;
59532;SDS011;45351;53.596;10.000;2022-09-03T01:27:26;4.13;;;0.77;;
59532;SDS011;45351;53.596;10.000;2022-09-03T01:30:04;4.70;;;1.10;;
59532;SDS011;45351;53.596;10.000;2022-09-03T01:32:36;4.07;;;1.00;;
59532;SDS011;45351;53.596;10.000;2022-09-03T01:35:12;2.07;;;0.80;;
59532;SDS011;45351;53.596;10.000;2022-09-03T01:37:51;2.43;;;0.80;;
59532;SDS011;45351;53.596;10.000;2022-09-03T01:40:29;1.90;;;0.90;;
59532;SDS011;45351;53.596;10.000;2022-09-03T01:43:08;4.93;;;1.20;;
59532;SDS011;45351;53.596;10.000;2022-09-03T01:45:51;5.70;;;0.90;;
59532;SDS011;45351;53.596;10.000;2022-09-03T01:48:43;18.40;;;1.07;;
59532;SDS011;45351;53.596;10.000;2022-09-03T01:51:34;3.23;;;1.00;;
59532;SDS011;45351;53.596;10.000;2022-09-03T01:57:40;4.77;;;0.90;;
59532;SDS011;45351;53.596;10.000;2022-09-03T02:00:33;2.53;;;0.90;;
59532;SDS011;45351;53.596;10.000;2022-09-03T02:03:24;4.67;;;1.10;;
59532;SDS011;45351;53.596;10.000;2022-09-03T02:06:00;2.37;;;0.70;;
59532;SDS011;45351;53.596;10.000;2022-09-03T02:08:27;2.13;;;0.90;;
59532;SDS011;45351;53.596;10.000;2022-09-03T02:10:55;6.93;;;0.93;;
59532;SDS011;45351;53.596;10.000;2022-09-03T02:13:27;6.07;;;1.00;;
59532;SDS011;45351;53.596;10.000;2022-09-03T02:15:56;12.90;;;1.00;;
59532;SDS011;45351;53.596;10.000;2022-09-03T02:18:30;6.03;;;1.30;;
59532;SDS011;45351;53.596;10.000;2022-09-03T02:21:02;4.40;;;0.90;;
59532;SDS011;45351;53.596;10.000;2022-09-03T02:23:30;1.67;;;1.00;;
59532;SDS011;45351;53.596;10.000;2022-09-03T02:25:57;4.37;;;1.00;;
59532;SDS011;45351;53.596;10.000;2022-09-03T02:28:27;5.40;;;0.97;;
59532;SDS011;45351;53.596;10.000;2022-09-03T02:30:56;2.87;;;1.10;;
59532;SDS011;45351;53.596;10.000;2022-09-03T02:33:23;5.83;;;1.00;;
59532;SDS011;45351;53.596;10.000;2022-09-03T02:35:51;10.10;;;1.50;;
59532;SDS011;45351;53.596;10.000;2022-09-03T02:38:20;5.77;;;0.90;;
59532;SDS011;45351;53.596;10.000;2022-09-03T02:40:49;16.00;;;1.20;;
59532;SDS011;45351;53.596;10.000;2022-09-03T02:43:19;4.00;;;1.40;;
59532;SDS011;45351;53.596;10.000;2022-09-03T02:45:50;4.73;;;1.37;;
59532;SDS011;45351;53.596;10.000;2022-09-03T02:48:21;7.30;;;1.07;;
59532;SDS011;45351;53.596;10.000;2022-09-03T02:50:50;6.63;;;1.23;;
59532;SDS011;45351;53.596;10.000;2022-09-03T02:53:17;4.30;;;0.87;;
59532;SDS011;45351;53.596;10.000;2022-09-03T02:55:45;5.53;;;1.20;;
59532;SDS011;45351;53.596;10.000;2022-09-03T02:58:12;6.80;;;1.20;;
59532;SDS011;45351;53.596;10.000;2022-09-03T03:00:38;3.80;;;1.50;;
59532;SDS011;45351;53.596;10.000;2022-09-03T03:03:06;5.33;;;0.80;;
59532;SDS011;45351;53.596;10.000;2022-09-03T03:05:35;5.90;;;0.93;;
59532;SDS011;45351;53.596;10.000;2022-09-03T03:08:09;6.03;;;1.30;;
59532;SDS011;45351;53.596;10.000;2022-09-03T03:10:39;7.20;;;1.13;;
59532;SDS011;45351;53.596;10.000;2022-09-03T03:13:06;3.40;;;0.93;;
59532;SDS011;45351;53.596;10.000;2022-09-03T03:15:33;1.40;;;0.80;;
59532;SDS011;45351;53.596;10.000;2022-09-03T03:18:00;3.97;;;0.93;;
59532;SDS011;45351;53.596;10.000;2022-09-03T03:20:26;4.80;;;1.00;;
59532;SDS011;45351;53.596;10.000;2022-09-03T03:22:54;5.00;;;0.90;;
59532;SDS011;45351;53.596;10.000;2022-09-03T03:25:22;3.83;;;1.10;;
59532;SDS011;45351;53.596;10.000;2022-09-03T03:27:49;1.50;;;0.90;;
59532;SDS011;45351;53.596;10.000;2022-09-03T03:30:17;1.40;;;0.93;;
59532;SDS011;45351;53.596;10.000;2022-09-03T03:32:45;5.83;;;1.03;;
59532;SDS011;45351;53.596;10.000;2022-09-03T03:35:12;2.30;;;0.80;;
59532;SDS011;45351;53.596;10.000;2022-09-03T03:37:38;1.37;;;0.80;;
59532;SDS011;45351;53.596;10.000;2022-09-03T03:40:06;2.03;;;0.83;;
59532;SDS011;45351;53.596;10.000;2022-09-03T03:42:35;3.37;;;0.90;;
59532;SDS011;45351;53.596;10.000;2022-09-03T03:45:02;2.23;;;1.00;;
59532;SDS011;45351;53.596;10.000;2022-09-03T03:47:30;9.37;;;1.00;;
59532;SDS011;45351;53.596;10.000;2022-09-03T03:49:57;1.60;;;1.00;;
59532;SDS011;45351;53.596;10.000;2022-09-03T03:52:25;3.53;;;0.90;;
59532;SDS011;45351;53.596;10.000;2022-09-03T03:54:53;8.10;;;0.93;;
59532;SDS011;45351;53.596;10.000;2022-09-03T03:57:20;5.63;;;0.90;;
59532;SDS011;45351;53.596;10.000;2022-09-03T03:59:49;4.40;;;0.87;;
59532;SDS011;45351;53.596;10.000;2022-09-03T04:02:16;10.17;;;1.47;;
59532;SDS011;45351;53.596;10.000;2022-09-03T04:04:43;6.43;;;1.00;;
59532;SDS011;45351;53.596;10.000;2022-09-03T04:07:09;4.57;;;1.17;;
59532;SDS011;45351;53.596;10.000;2022-09-03T04:09:36;7.20;;;1.20;;
59532;SDS011;45351;53.596;10.000;2022-09-03T04:12:03;2.00;;;1.00;;
59532;SDS011;45351;53.596;10.000;2022-09-03T04:14:32;3.60;;;1.00;;
59532;SDS011;45351;53.596;10.000;2022-09-03T04:17:01;5.83;;;1.33;;
59532;SDS011;45351;53.596;10.000;2022-09-03T04:19:28;10.27;;;1.43;;
59532;SDS011;45351;53.596;10.000;2022-09-03T04:21:55;6.70;;;1.20;;
59532;SDS011;45351;53.596;10.000;2022-09-03T04:24:22;7.33;;;1.30;;
59532;SDS011;45351;53.596;10.000;2022-09-03T04:26:49;3.83;;;0.97;;
59532;SDS011;45351;53.596;10.000;2022-09-03T04:29:18;7.10;;;1.23;;
59532;SDS011;45351;53.596;10.000;2022-09-03T04:31:46;2.50;;;1.00;;
59532;SDS011;45351;53.596;10.000;2022-09-03T04:34:28;3.67;;;1.10;;
59532;SDS011;45351;53.596;10.000;2022-09-03T04:36:55;2.93;;;1.00;;
59532;SDS011;45351;53.596;10.000;2022-09-03T04:39:23;3.00;;;1.20;;
59532;SDS011;45351;53.596;10.000;2022-09-03T04:41:50;2.00;;;1.00;;
59532;SDS011;45351;53.596;10.000;2022-09-03T04:44:17;2.70;;;1.00;;
59532;SDS011;45351;53.596;10.000;2022-09-03T04:46:43;3.20;;;1.00;;
59532;SDS011;45351;53.596;10.000;2022-09-03T04:49:11;2.03;;;1.10;;
59532;SDS011;45351;53.596;10.000;2022-09-03T04:51:40;1.60;;;0.80;;
59532;SDS011;45351;53.596;10.000;2022-09-03T04:54:08;8.73;;;1.00;;
59532;SDS011;45351;53.596;10.000;2022-09-03T04:56:37;2.50;;;0.90;;
59532;SDS011;45351;53.596;10.000;2022-09-03T04:59:05;6.83;;;1.07;;
59532;SDS011;45351;53.596;10.000;2022-09-03T05:01:34;1.20;;;0.90;;
59532;SDS011;45351;53.596;10.000;2022-09-03T05:04:03;3.73;;;0.80;;
59532;SDS011;45351;53.596;10.000;2022-09-03T05:06:31;2.47;;;0.80;;
59532;SDS011;45351;53.596;10.000;2022-09-03T05:09:00;3.23;;;0.80;;
59532;SDS011;45351;53.596;10.000;2022-09-03T05:11:27;1.63;;;1.00;;
59532;SDS011;45351;53.596;10.000;2022-09-03T05:13:55;1.43;;;0.90;;
59532;SDS011;45351;53.596;10.000;2022-09-03T05:16:23;2.17;;;1.17;;
59532;SDS011;45351;53.596;10.000;2022-09-03T05:18:52;1.70;;;0.83;;
59532;SDS011;45351;53.596;10.000;2022-09-03T05:21:20;2.13;;;1.00;;
59532;SDS011;45351;53.596;10.000;2022-09-03T05:23:49;4.23;;;0.93;;
59532;SDS011;45351;53.596;10.000;2022-09-03T05:26:18;1.43;;;1.00;;
59532;SDS011;45351;53.596;10.000;2022-09-03T05:28:46;2.43;;;0.90;;
59532;SDS011;45351;53.596;10.000;2022-09-03T05:31:15;4.30;;;1.10;;
59532;SDS011;45351;53.596;10.000;2022-09-03T05:33:44;1.80;;;1.10;;
59532;SDS011;45351;53.596;10.000;2022-09-03T05:36:13;2.43;;;0.90;;
59532;SDS011;45351;53.596;10.000;2022-09-03T05:38:41;4.20;;;1.00;;
59532;SDS011;45351;53.596;10.000;2022-09-03T05:41:09;6.33;;;0.90;;
59532;SDS011;45351;53.596;10.000;2022-09-03T05:43:38;5.10;;;1.23;;
59532;SDS011;45351;53.596;10.000;2022-09-03T05:46:06;6.07;;;1.47;;
59532;SDS011;45351;53.596;10.000;2022-09-03T05:48:35;2.97;;;1.20;;
59532;SDS011;45351;53.596;10.000;2022-09-03T05:51:04;6.40;;;1.80;;
59532;SDS011;45351;53.596;10.000;2022-09-03T05:53:32;6.13;;;1.20;;
59532;SDS011;45351;53.596;10.000;2022-09-03T05:56:00;8.30;;;1.40;;
59532;SDS011;45351;53.596;10.000;2022-09-03T05:58:32;6.33;;;1.50;;
59532;SDS011;45351;53.596;10.000;2022-09-03T06:01:09;5.33;;;1.30;;
59532;SDS011;45351;53.596;10.000;2022-09-03T06:03:37;6.27;;;1.60;;
59532;SDS011;45351;53.596;10.000;2022-09-03T06:06:05;6.13;;;1.50;;
59532;SDS011;45351;53.596;10.000;2022-09-03T06:08:32;5.90;;;1.23;;
59532;SDS011;45351;53.596;10.000;2022-09-03T06:10:59;7.30;;;1.40;;
59532;SDS011;45351;53.596;10.000;2022-09-03T06:13:28;19.43;;;1.60;;
59532;SDS011;45351;53.596;10.000;2022-09-03T06:15:55;6.70;;;1.47;;
59532;SDS011;45351;53.596;10.000;2022-09-03T06:18:24;10.17;;;1.77;;
59532;SDS011;45351;53.596;10.000;2022-09-03T06:20:54;16.83;;;1.77;;
59532;SDS011;45351;53.596;10.000;2022-09-03T06:23:22;12.20;;;1.60;;
59532;SDS011;45351;53.596;10.000;2022-09-03T06:25:58;4.67;;;1.30;;
59532;SDS011;45351;53.596;10.000;2022-09-03T06:28:26;10.60;;;1.57;;
59532;SDS011;45351;53.596;10.000;2022-09-03T06:30:53;10.13;;;1.50;;
59532;SDS011;45351;53.596;10.000;2022-09-03T06:33:24;16.30;;;1.40;;
59532;SDS011;45351;53.596;10.000;2022-09-03T06:35:52;7.10;;;1.50;;
59532;SDS011;45351;53.596;10.000;2022-09-03T06:38:22;3.43;;;1.10;;
59532;SDS011;45351;53.596;10.000;2022-09-03T06:40:53;3.77;;;1.00;;
59532;SDS011;45351;53.596;10.000;2022-09-03T06:43:21;2.53;;;1.13;;
59532;SDS011;45351;53.596;10.000;2022-09-03T06:45:52;7.97;;;1.30;;
59532;SDS011;45351;53.596;10.000;2022-09-03T06:48:20;2.17;;;1.10;;
59532;SDS011;45351;53.596;10.000;2022-09-03T06:50:53;5.50;;;1.10;;
59532;SDS011;45351;53.596;10.000;2022-09-03T06:53:22;5.90;;;1.20;;
59532;SDS011;45351;53.596;10.000;2022-09-03T06:55:53;2.47;;;1.00;;
59532;SDS011;45351;53.596;10.000;2022-09-03T06:58:21;2.10;;;1.40;;
59532;SDS011;45351;53.596;10.000;2022-09-03T07:00:48;4.57;;;1.20;;
59532;SDS011;45351;53.596;10.000;2022-09-03T07:03:16;10.17;;;1.33;;
59532;SDS011;45351;53.596;10.000;2022-09-03T07:05:43;7.87;;;1.30;;
59532;SDS011;45351;53.596;10.000;2022-09-03T07:08:12;3.40;;;1.30;;
59532;SDS011;45351;53.596;10.000;2022-09-03T07:10:39;6.43;;;1.30;;
59532;SDS011;45351;53.596;10.000;2022-09-03T07:13:07;11.17;;;1.33;;
59532;SDS011;45351;53.596;10.000;2022-09-03T07:15:33;2.80;;;1.30;;
59532;SDS011;45351;53.596;10.000;2022-09-03T07:18:00;6.87;;;1.30;;
59532;SDS011;45351;53.596;10.000;2022-09-03T07:20:27;7.10;;;1.50;;
59532;SDS011;45351;53.596;10.000;2022-09-03T07:22:54;10.93;;;0.90;;
59532;SDS011;45351;53.596;10.000;2022-09-03T07:25:23;4.93;;;1.00;;
59532;SDS011;45351;53.596;10.000;2022-09-03T07:27:51;5.70;;;1.13;;
59532;SDS011;45351;53.596;10.000;2022-09-03T07:30:18;2.60;;;1.10;;
59532;SDS011;45351;53.596;10.000;2022-09-03T07:32:45;4.80;;;1.07;;
59532;SDS011;45351;53.596;10.000;2022-09-03T07:35:15;6.80;;;1.30;;
59532;SDS011;45351;53.596;10.000;2022-09-03T07:37:43;3.60;;;1.00;;
59532;SDS011;45351;53.596;10.000;2022-09-03T07:40:10;4.80;;;0.93;;
59532;SDS011;45351;53.596;10.000;2022-09-03T07:42:39;4.27;;;1.10;;
59532;SDS011;45351;53.596;10.000;2022-09-03T07:47:35;2.03;;;0.90;;
59532;SDS011;45351;53.596;10.000;2022-09-03T07:50:02;2.60;;;1.00;;
59532;SDS011;45351;53.596;10.000;2022-09-03T07:52:30;2.60;;;1.00;;
59532;SDS011;45351;53.596;10.000;2022-09-03T07:54:57;1.87;;;0.90;;
59532;SDS011;45351;53.596;10.000;2022-09-03T07:57:24;4.03;;;1.00;;
59532;SDS011;45351;53.596;10.000;2022-09-03T07:59:52;5.63;;;1.17;;
59532;SDS011;45351;53.596;10.000;2022-09-03T08:02:20;3.97;;;1.10;;
59532;SDS011;45351;53.596;10.000;2022-09-03T08:04:47;8.97;;;1.10;;
59532;SDS011;45351;53.596;10.000;2022-09-03T08:07:14;2.70;;;1.10;;
59532;SDS011;45351;53.596;10.000;2022-09-03T08:09:40;1.50;;;0.97;;
59532;SDS011;45351;53.596;10.000;2022-09-03T08:12:07;2.43;;;0.90;;
59532;SDS011;45351;53.596;10.000;2022-09-03T08:14:34;2.50;;;1.10;;
59532;SDS011;45351;53.596;10.000;2022-09-03T08:17:02;7.23;;;1.30;;
59532;SDS011;45351;53.596;10.000;2022-09-03T08:19:29;16.60;;;2.73;;
59532;SDS011;45351;53.596;10.000;2022-09-03T08:21:56;10.97;;;2.03;;
59532;SDS011;45351;53.596;10.000;2022-09-03T08:24:23;18.67;;;2.27;;
59532;SDS011;45351;53.596;10.000;2022-09-03T08:26:50;6.47;;;1.80;;
59532;SDS011;45351;53.596;10.000;2022-09-03T08:29:17;11.30;;;2.40;;
59532;SDS011;45351;53.596;10.000;2022-09-03T08:31:44;16.70;;;3.10;;
59532;SDS011;45351;53.596;10.000;2022-09-03T08:34:13;21.13;;;2.40;;
59532;SDS011;45351;53.596;10.000;2022-09-03T08:36:41;6.97;;;2.20;;
59532;SDS011;45351;53.596;10.000;2022-09-03T08:39:09;19.70;;;3.03;;
59532;SDS011;45351;53.596;10.000;2022-09-03T08:41:40;9.87;;;2.30;;
59532;SDS011;45351;53.596;10.000;2022-09-03T08:44:18;22.10;;;2.40;;
59532;SDS011;45351;53.596;10.000;2022-09-03T08:46:49;7.77;;;2.30;;
59532;SDS011;45351;53.596;10.000;2022-09-03T08:49:23;9.03;;;2.00;;
59532;SDS011;45351;53.596;10.000;2022-09-03T08:51:54;10.80;;;1.93;;
59532;SDS011;45351;53.596;10.000;2022-09-03T08:54:24;15.90;;;2.30;;
59532;SDS011;45351;53.596;10.000;2022-09-03T08:56:55;9.20;;;2.00;;
59532;SDS011;45351;53.596;10.000;2022-09-03T08:59:25;4.07;;;1.57;;
59532;SDS011;45351;53.596;10.000;2022-09-03T09:01:54;11.93;;;1.57;;
59532;SDS011;45351;53.596;10.000;2022-09-03T09:04:31;7.50;;;1.60;;
59532;SDS011;45351;53.596;10.000;2022-09-03T09:07:11;9.23;;;1.50;;
59532;SDS011;45351;53.596;10.000;2022-09-03T09:09:47;9.30;;;1.67;;
59532;SDS011;45351;53.596;10.000;2022-09-03T09:12:26;8.83;;;1.80;;
59532;SDS011;45351;53.596;10.000;2022-09-03T09:15:09;7.73;;;1.40;;
59532;SDS011;45351;53.596;10.000;2022-09-03T09:17:48;7.80;;;1.43;;
59532;SDS011;45351;53.596;10.000;2022-09-03T09:20:28;6.30;;;1.63;;
59532;SDS011;45351;53.596;10.000;2022-09-03T09:23:02;5.70;;;1.90;;
59532;SDS011;45351;53.596;10.000;2022-09-03T09:25:31;7.60;;;1.93;;
59532;SDS011;45351;53.596;10.000;2022-09-03T09:28:05;3.30;;;1.40;;
59532;SDS011;45351;53.596;10.000;2022-09-03T09:30:39;6.13;;;1.50;;
59532;SDS011;45351;53.596;10.000;2022-09-03T09:33:06;3.07;;;1.40;;
59532;SDS011;45351;53.596;10.000;2022-09-03T09:35:34;3.23;;;1.13;;
59532;SDS011;45351;53.596;10.000;2022-09-03T09:38:05;14.27;;;1.67;;
59532;SDS011;45351;53.596;10.000;2022-09-03T09:40:33;3.83;;;1.50;;
59532;SDS011;45351;53.596;10.000;2022-09-03T09:43:05;5.53;;;1.50;;
59532;SDS011;45351;53.596;10.000;2022-09-03T09:45:34;5.67;;;1.40;;
59532;SDS011;45351;53.596;10.000;2022-09-03T09:48:07;2.90;;;1.30;;
59532;SDS011;45351;53.596;10.000;2022-09-03T09:50:40;2.07;;;1.23;;
59532;SDS011;45351;53.596;10.000;2022-09-03T09:53:08;4.27;;;1.27;;
59532;SDS011;45351;53.596;10.000;2022-09-03T09:55:50;3.17;;;1.20;;
59532;SDS011;45351;53.596;10.000;2022-09-03T09:58:19;2.27;;;1.03;;
59532;SDS011;45351;53.596;10.000;2022-09-03T10:00:54;2.20;;;1.10;;
59532;SDS011;45351;53.596;10.000;2022-09-03T10:03:27;6.10;;;1.20;;
59532;SDS011;45351;53.596;10.000;2022-09-03T10:06:03;5.87;;;1.30;;
59532;SDS011;45351;53.596;10.000;2022-09-03T10:08:45;1.77;;;0.90;;
59532;SDS011;45351;53.596;10.000;2022-09-03T10:11:12;3.23;;;1.20;;
59532;SDS011;45351;53.596;10.000;2022-09-03T10:13:41;3.10;;;1.17;;
59532;SDS011;45351;53.596;10.000;2022-09-03T10:16:12;3.13;;;1.10;;
59532;SDS011;45351;53.596;10.000;2022-09-03T10:18:48;4.23;;;1.00;;
59532;SDS011;45351;53.596;10.000;2022-09-03T10:21:22;4.27;;;1.00;;
59532;SDS011;45351;53.596;10.000;2022-09-03T10:23:57;5.37;;;1.10;;
59532;SDS011;45351;53.596;10.000;2022-09-03T10:26:27;2.53;;;1.10;;
59532;SDS011;45351;53.596;10.000;2022-09-03T10:28:56;2.50;;;1.10;;
59532;SDS011;45351;53.596;10.000;2022-09-03T10:31:28;3.73;;;1.10;;
59532;SDS011;45351;53.596;10.000;2022-09-03T10:34:08;1.93;;;1.10;;
59532;SDS011;45351;53.596;10.000;2022-09-03T10:36:45;1.90;;;1.10;;
59532;SDS011;45351;53.596;10.000;2022-09-03T10:39:20;3.70;;;0.90;;
59532;SDS011;45351;53.596;10.000;2022-09-03T10:41:54;1.53;;;0.80;;
59532;SDS011;45351;53.596;10.000;2022-09-03T10:44:37;1.83;;;0.90;;
59532;SDS011;45351;53.596;10.000;2022-09-03T10:47:18;1.70;;;0.93;;
59532;SDS011;45351;53.596;10.000;2022-09-03T10:50:00;1.93;;;1.00;;
59532;SDS011;45351;53.596;10.000;2022-09-03T10:52:44;2.17;;;1.00;;
59532;SDS011;45351;53.596;10.000;2022-09-03T10:55:34;2.17;;;1.10;;
59532;SDS011;45351;53.596;10.000;2022-09-03T10:58:11;3.13;;;1.20;;
59532;SDS011;45351;53.596;10.000;2022-09-03T11:00:51;3.50;;;1.67;;
59532;SDS011;45351;53.596;10.000;2022-09-03T11:03:33;10.93;;;2.40;;
59532;SDS011;45351;53.596;10.000;2022-09-03T11:06:10;9.70;;;2.50;;
59532;SDS011;45351;53.596;10.000;2022-09-03T11:08:43;10.10;;;2.23;;
59532;SDS011;45351;53.596;10.000;2022-09-03T11:11:15;14.33;;;2.60;;
59532;SDS011;45351;53.596;10.000;2022-09-03T11:13:46;14.83;;;2.63;;
59532;SDS011;45351;53.596;10.000;2022-09-03T11:16:19;12.83;;;1.90;;
59532;SDS011;45351;53.596;10.000;2022-09-03T11:18:52;8.60;;;2.30;;
59532;SDS011;45351;53.596;10.000;2022-09-03T11:21:22;7.60;;;2.27;;
59532;SDS011;45351;53.596;10.000;2022-09-03T11:23:56;9.23;;;2.37;;
59532;SDS011;45351;53.596;10.000;2022-09-03T11:26:31;12.03;;;2.97;;
59532;SDS011;45351;53.596;10.000;2022-09-03T11:29:00;16.67;;;2.40;;
59532;SDS011;45351;53.596;10.000;2022-09-03T11:31:36;11.10;;;2.67;;
59532;SDS011;45351;53.596;10.000;2022-09-03T11:34:13;7.63;;;2.50;;
59532;SDS011;45351;53.596;10.000;2022-09-03T11:36:41;17.23;;;2.90;;
59532;SDS011;45351;53.596;10.000;2022-09-03T11:39:13;8.10;;;2.13;;
59532;SDS011;45351;53.596;10.000;2022-09-03T11:41:55;12.43;;;2.07;;
59532;SDS011;45351;53.596;10.000;2022-09-03T11:44:23;8.57;;;2.37;;
59532;SDS011;45351;53.596;10.000;2022-09-03T11:47:11;6.27;;;2.30;;
59532;SDS011;45351;53.596;10.000;2022-09-03T11:49:43;3.93;;;1.80;;
59532;SDS011;45351;53.596;10.000;2022-09-03T11:52:11;11.80;;;2.50;;
59532;SDS011;45351;53.596;10.000;2022-09-03T11:54:43;3.90;;;1.83;;
59532;SDS011;45351;53.596;10.000;2022-09-03T11:57:12;10.47;;;2.23;;
59532;SDS011;45351;53.596;10.000;2022-09-03T11:59:40;7.63;;;2.10;;
59532;SDS011;45351;53.596;10.000;2022-09-03T12:02:13;3.43;;;1.70;;
59532;SDS011;45351;53.596;10.000;2022-09-03T12:04:50;7.07;;;1.77;;
59532;SDS011;45351;53.596;10.000;2022-09-03T12:07:36;7.30;;;2.20;;
59532;SDS011;45351;53.596;10.000;2022-09-03T12:10:18;6.13;;;1.90;;
59532;SDS011;45351;53.596;10.000;2022-09-03T12:12:54;8.80;;;1.70;;
59532;SDS011;45351;53.596;10.000;2022-09-03T12:18:38;5.53;;;1.80;;
59532;SDS011;45351;53.596;10.000;2022-09-03T12:21:07;4.80;;;1.77;;
59532;SDS011;45351;53.596;10.000;2022-09-03T12:23:39;3.60;;;1.53;;
59532;SDS011;45351;53.596;10.000;2022-09-03T12:26:10;3.57;;;1.80;;
59532;SDS011;45351;53.596;10.000;2022-09-03T12:28:40;4.90;;;1.70;;
59532;SDS011;45351;53.596;10.000;2022-09-03T12:31:09;4.80;;;1.83;;
59532;SDS011;45351;53.596;10.000;2022-09-03T12:33:46;5.77;;;1.90;;
59532;SDS011;45351;53.596;10.000;2022-09-03T12:36:18;3.20;;;1.50;;
59532;SDS011;45351;53.596;10.000;2022-09-03T12:38:46;7.37;;;1.47;;
59532;SDS011;45351;53.596;10.000;2022-09-03T12:41:23;3.37;;;1.70;;
59532;SDS011;45351;53.596;10.000;2022-09-03T12:43:52;2.93;;;1.30;;
59532;SDS011;45351;53.596;10.000;2022-09-03T12:46:24;3.00;;;1.30;;
59532;SDS011;45351;53.596;10.000;2022-09-03T12:48:53;4.17;;;1.70;;
59532;SDS011;45351;53.596;10.000;2022-09-03T12:51:21;10.17;;;1.90;;
59532;SDS011;45351;53.596;10.000;2022-09-03T12:53:49;1.83;;;1.10;;
59532;SDS011;45351;53.596;10.000;2022-09-03T12:56:17;3.30;;;1.40;;
59532;SDS011;45351;53.596;10.000;2022-09-03T12:58:49;2.67;;;1.50;;
59532;SDS011;45351;53.596;10.000;2022-09-03T13:01:23;4.43;;;2.30;;
59532;SDS011;45351;53.596;10.000;2022-09-03T13:03:56;5.37;;;1.40;;
59532;SDS011;45351;53.596;10.000;2022-09-03T13:06:32;4.87;;;1.27;;
59532;SDS011;45351;53.596;10.000;2022-09-03T13:09:07;2.93;;;1.30;;
59532;SDS011;45351;53.596;10.000;2022-09-03T13:11:35;4.30;;;1.40;;
59532;SDS011;45351;53.596;10.000;2022-09-03T13:14:04;3.20;;;1.30;;
59532;SDS011;45351;53.596;10.000;2022-09-03T13:16:50;1.80;;;1.03;;
59532;SDS011;45351;53.596;10.000;2022-09-03T13:19:35;3.13;;;1.40;;
59532;SDS011;45351;53.596;10.000;2022-09-03T13:22:09;3.63;;;1.10;;
59532;SDS011;45351;53.596;10.000;2022-09-03T13:27:43;2.60;;;1.10;;
59532;SDS011;45351;53.596;10.000;2022-09-03T13:30:21;1.60;;;1.00;;
59532;SDS011;45351;53.596;10.000;2022-09-03T13:32:56;5.10;;;1.30;;
59532;SDS011;45351;53.596;10.000;2022-09-03T13:35:28;2.33;;;1.23;;
59532;SDS011;45351;53.596;10.000;2022-09-03T13:38:02;1.97;;;1.20;;
59532;SDS011;45351;53.596;10.000;2022-09-03T13:40:35;2.13;;;1.13;;
59532;SDS011;45351;53.596;10.000;2022-09-03T13:43:10;3.67;;;1.27;;
59532;SDS011;45351;53.596;10.000;2022-09-03T13:45:51;6.13;;;1.40;;
59532;SDS011;45351;53.596;10.000;2022-09-03T13:48:25;1.73;;;1.10;;
59532;SDS011;45351;53.596;10.000;2022-09-03T13:51:17;3.40;;;1.20;;
59532;SDS011;45351;53.596;10.000;2022-09-03T13:53:49;2.33;;;1.27;;
59532;SDS011;45351;53.596;10.000;2022-09-03T13:56:31;4.10;;;1.20;;
59532;SDS011;45351;53.596;10.000;2022-09-03T13:59:03;3.57;;;1.10;;
59532;SDS011;45351;53.596;10.000;2022-09-03T14:01:40;5.43;;;1.10;;
59532;SDS011;45351;53.596;10.000;2022-09-03T14:04:20;4.33;;;1.10;;
59532;SDS011;45351;53.596;10.000;2022-09-03T14:06:56;3.23;;;1.30;;
59532;SDS011;45351;53.596;10.000;2022-09-03T14:09:29;2.17;;;1.30;;
59532;SDS011;45351;53.596;10.000;2022-09-03T14:12:08;2.03;;;0.90;;
59532;SDS011;45351;53.596;10.000;2022-09-03T14:14:44;2.70;;;1.20;;
59532;SDS011;45351;53.596;10.000;2022-09-03T14:17:25;1.87;;;1.00;;
59532;SDS011;45351;53.596;10.000;2022-09-03T14:20:03;1.80;;;1.00;;
59532;SDS011;45351;53.596;10.000;2022-09-03T14:22:38;1.63;;;1.00;;
59532;SDS011;45351;53.596;10.000;2022-09-03T14:25:14;2.37;;;1.10;;
59532;SDS011;45351;53.596;10.000;2022-09-03T14:27:42;2.50;;;1.00;;
59532;SDS011;45351;53.596;10.000;2022-09-03T14:30:16;2.37;;;1.00;;
59532;SDS011;45351;53.596;10.000;2022-09-03T14:32:52;1.30;;;0.80;;
59532;SDS011;45351;53.596;10.000;2022-09-03T14:35:32;1.70;;;1.00;;
59532;SDS011;45351;53.596;10.000;2022-09-03T14:38:17;2.13;;;1.20;;
59532;SDS011;45351;53.596;10.000;2022-09-03T14:40:58;1.67;;;1.00;;
59532;SDS011;45351;53.596;10.000;2022-09-03T14:43:44;1.73;;;1.00;;
59532;SDS011;45351;53.596;10.000;2022-09-03T14:46:26;1.43;;;0.90;;
59532;SDS011;45351;53.596;10.000;2022-09-03T14:49:09;1.20;;;0.90;;
59532;SDS011;45351;53.596;10.000;2022-09-03T14:52:01;1.30;;;0.80;;
59532;SDS011;45351;53.596;10.000;2022-09-03T14:54:48;2.90;;;1.40;;
59532;SDS011;45351;53.596;10.000;2022-09-03T14:57:29;1.20;;;0.80;;
59532;SDS011;45351;53.596;10.000;2022-09-03T15:00:20;1.30;;;0.90;;
59532;SDS011;45351;53.596;10.000;2022-09-03T15:03:02;1.40;;;1.00;;
59532;SDS011;45351;53.596;10.000;2022-09-03T15:05:55;1.37;;;0.87;;
59532;SDS011;45351;53.596;10.000;2022-09-03T15:08:35;1.20;;;0.80;;
59532;SDS011;45351;53.596;10.000;2022-09-03T15:11:14;1.10;;;0.70;;
59532;SDS011;45351;53.596;10.000;2022-09-03T15:13:45;1.23;;;0.80;;
59532;SDS011;45351;53.596;10.000;2022-09-03T15:19:11;2.80;;;1.00;;